Elwood, Indiana
Current Conditions -  °F | °C
As of 11:55 PM on Saturday 22 Nov 2014 (Local Time) from KMZZ Reporting Station
Light Rain Light Rain  
Wind Chill: 42°   Ceiling: 7000
Heat Index: 47°   Visibility: 7mi
Dew Point: 39°   Wind: 9mph
Humidity: 75%   Direction: 200°SSW
Pressure: 30"   Gusts: NA
Location:  40.28°N, 85.82°W
Report Text: KMZZ 230455Z AUTO 20008KT 7SM -RA SCT041 BKN070 OVC090 08/04 A3000 RMK AO2 T00810040
Loading
Personal Weather Stations






























Interactive Weather Map New forecast layout! Learn more

10-Day Weather Forecast

Advertisements
Track Severe Weather on mobile